sensor_id;sensor_type;location;lat;lon;timestamp;temperature;humidity
25058;DHT22;13057;50.978;11.034;2023-04-20T00:02:06;5.80;99.90
25058;DHT22;13057;50.978;11.034;2023-04-20T00:04:32;5.80;99.90
25058;DHT22;13057;50.978;11.034;2023-04-20T00:06:58;5.80;99.90
25058;DHT22;13057;50.978;11.034;2023-04-20T00:09:26;5.70;99.90
25058;DHT22;13057;50.978;11.034;2023-04-20T00:11:52;5.70;99.90
25058;DHT22;13057;50.978;11.034;2023-04-20T00:14:18;5.60;99.90
25058;DHT22;13057;50.978;11.034;2023-04-20T00:16:44;5.70;99.90
25058;DHT22;13057;50.978;11.034;2023-04-20T00:19:10;5.80;99.90
25058;DHT22;13057;50.978;11.034;2023-04-20T00:21:36;5.90;99.90
25058;DHT22;13057;50.978;11.034;2023-04-20T00:24:02;5.80;99.90
25058;DHT22;13057;50.978;11.034;2023-04-20T00:26:28;5.80;99.90
25058;DHT22;13057;50.978;11.034;2023-04-20T00:28:54;5.80;99.90
25058;DHT22;13057;50.978;11.034;2023-04-20T00:31:20;5.80;99.90
25058;DHT22;13057;50.978;11.034;2023-04-20T00:33:47;5.90;99.90
25058;DHT22;13057;50.978;11.034;2023-04-20T00:36:14;5.80;99.90
25058;DHT22;13057;50.978;11.034;2023-04-20T00:38:40;5.90;99.90
25058;DHT22;13057;50.978;11.034;2023-04-20T00:41:06;6.00;99.90
25058;DHT22;13057;50.978;11.034;2023-04-20T00:43:32;6.00;99.90
25058;DHT22;13057;50.978;11.034;2023-04-20T00:45:58;5.90;99.90
25058;DHT22;13057;50.978;11.034;2023-04-20T00:48:24;5.90;99.90
25058;DHT22;13057;50.978;11.034;2023-04-20T00:50:50;5.90;99.90
25058;DHT22;13057;50.978;11.034;2023-04-20T00:53:17;5.90;99.90
25058;DHT22;13057;50.978;11.034;2023-04-20T00:55:43;5.90;99.90
25058;DHT22;13057;50.978;11.034;2023-04-20T00:58:09;5.80;99.90
25058;DHT22;13057;50.978;11.034;2023-04-20T01:00:37;5.80;99.90
25058;DHT22;13057;50.978;11.034;2023-04-20T01:03:06;5.80;99.90
25058;DHT22;13057;50.978;11.034;2023-04-20T01:05:32;5.80;99.90
25058;DHT22;13057;50.978;11.034;2023-04-20T01:07:58;5.80;99.90
25058;DHT22;13057;50.978;11.034;2023-04-20T01:10:24;5.80;99.90
25058;DHT22;13057;50.978;11.034;2023-04-20T01:12:50;5.80;99.90
25058;DHT22;13057;50.978;11.034;2023-04-20T01:15:15;5.90;99.90
25058;DHT22;13057;50.978;11.034;2023-04-20T01:17:42;5.90;99.90
25058;DHT22;13057;50.978;11.034;2023-04-20T01:20:09;5.90;99.90
25058;DHT22;13057;50.978;11.034;2023-04-20T01:22:44;5.90;99.90
25058;DHT22;13057;50.978;11.034;2023-04-20T01:25:10;5.90;99.90
25058;DHT22;13057;50.978;11.034;2023-04-20T01:27:36;5.90;99.90
25058;DHT22;13057;50.978;11.034;2023-04-20T01:30:02;5.90;99.90
25058;DHT22;13057;50.978;11.034;2023-04-20T01:32:28;5.90;99.90
25058;DHT22;13057;50.978;11.034;2023-04-20T01:34:54;5.80;99.90
25058;DHT22;13057;50.978;11.034;2023-04-20T01:37:20;5.80;99.90
25058;DHT22;13057;50.978;11.034;2023-04-20T01:39:46;5.90;99.90
25058;DHT22;13057;50.978;11.034;2023-04-20T01:42:12;6.00;99.90
25058;DHT22;13057;50.978;11.034;2023-04-20T01:44:38;5.90;99.90
25058;DHT22;13057;50.978;11.034;2023-04-20T01:47:04;5.90;99.90
25058;DHT22;13057;50.978;11.034;2023-04-20T01:49:30;5.90;99.90
25058;DHT22;13057;50.978;11.034;2023-04-20T01:51:56;5.90;99.90
25058;DHT22;13057;50.978;11.034;2023-04-20T01:54:22;5.90;99.90
25058;DHT22;13057;50.978;11.034;2023-04-20T01:56:48;5.90;99.90
25058;DHT22;13057;50.978;11.034;2023-04-20T01:59:14;5.90;99.90
25058;DHT22;13057;50.978;11.034;2023-04-20T02:01:40;5.90;99.90
25058;DHT22;13057;50.978;11.034;2023-04-20T02:04:05;5.80;99.90
25058;DHT22;13057;50.978;11.034;2023-04-20T02:06:31;5.80;99.90
25058;DHT22;13057;50.978;11.034;2023-04-20T02:08:57;5.80;99.90
25058;DHT22;13057;50.978;11.034;2023-04-20T02:11:23;5.80;99.90
25058;DHT22;13057;50.978;11.034;2023-04-20T02:13:49;5.80;99.90
25058;DHT22;13057;50.978;11.034;2023-04-20T02:16:16;5.80;99.90
25058;DHT22;13057;50.978;11.034;2023-04-20T02:18:43;5.80;99.90
25058;DHT22;13057;50.978;11.034;2023-04-20T02:21:10;5.80;99.90
25058;DHT22;13057;50.978;11.034;2023-04-20T02:23:36;5.80;99.90
25058;DHT22;13057;50.978;11.034;2023-04-20T02:26:02;5.80;99.90
25058;DHT22;13057;50.978;11.034;2023-04-20T02:28:28;5.80;99.90
25058;DHT22;13057;50.978;11.034;2023-04-20T02:30:54;5.80;99.90
25058;DHT22;13057;50.978;11.034;2023-04-20T02:33:20;5.80;99.90
25058;DHT22;13057;50.978;11.034;2023-04-20T02:35:46;5.70;99.90
25058;DHT22;13057;50.978;11.034;2023-04-20T02:38:12;5.70;99.90
25058;DHT22;13057;50.978;11.034;2023-04-20T02:40:38;5.70;99.90
25058;DHT22;13057;50.978;11.034;2023-04-20T02:43:04;5.70;99.90
25058;DHT22;13057;50.978;11.034;2023-04-20T02:45:31;5.60;99.90
25058;DHT22;13057;50.978;11.034;2023-04-20T02:47:57;5.60;99.90
25058;DHT22;13057;50.978;11.034;2023-04-20T02:50:23;5.70;99.90
25058;DHT22;13057;50.978;11.034;2023-04-20T02:52:49;5.70;99.90
25058;DHT22;13057;50.978;11.034;2023-04-20T02:55:15;5.70;99.90
25058;DHT22;13057;50.978;11.034;2023-04-20T02:57:41;5.70;99.90
25058;DHT22;13057;50.978;11.034;2023-04-20T03:00:07;5.70;99.90
25058;DHT22;13057;50.978;11.034;2023-04-20T03:02:35;5.70;99.90
25058;DHT22;13057;50.978;11.034;2023-04-20T03:05:02;5.60;99.90
25058;DHT22;13057;50.978;11.034;2023-04-20T03:07:28;5.60;99.90
25058;DHT22;13057;50.978;11.034;2023-04-20T03:09:54;5.70;99.90
25058;DHT22;13057;50.978;11.034;2023-04-20T03:12:20;5.70;99.90
25058;DHT22;13057;50.978;11.034;2023-04-20T03:14:47;5.70;99.90
25058;DHT22;13057;50.978;11.034;2023-04-20T03:17:13;5.70;99.90
25058;DHT22;13057;50.978;11.034;2023-04-20T03:19:38;5.70;99.90
25058;DHT22;13057;50.978;11.034;2023-04-20T03:22:05;5.60;99.90
25058;DHT22;13057;50.978;11.034;2023-04-20T03:24:31;5.70;99.90
25058;DHT22;13057;50.978;11.034;2023-04-20T03:26:57;5.60;99.90
25058;DHT22;13057;50.978;11.034;2023-04-20T03:29:22;5.60;99.90
25058;DHT22;13057;50.978;11.034;2023-04-20T03:31:49;5.60;99.90
25058;DHT22;13057;50.978;11.034;2023-04-20T03:34:14;5.60;99.90
25058;DHT22;13057;50.978;11.034;2023-04-20T03:36:40;5.60;99.90
25058;DHT22;13057;50.978;11.034;2023-04-20T03:39:06;5.60;99.90
25058;DHT22;13057;50.978;11.034;2023-04-20T03:41:33;5.60;99.90
25058;DHT22;13057;50.978;11.034;2023-04-20T03:43:58;5.60;99.90
25058;DHT22;13057;50.978;11.034;2023-04-20T03:46:24;5.60;99.90
25058;DHT22;13057;50.978;11.034;2023-04-20T03:48:50;5.60;99.90
25058;DHT22;13057;50.978;11.034;2023-04-20T03:51:16;5.60;99.90
25058;DHT22;13057;50.978;11.034;2023-04-20T03:53:42;5.60;99.90
25058;DHT22;13057;50.978;11.034;2023-04-20T03:56:08;5.70;99.90
25058;DHT22;13057;50.978;11.034;2023-04-20T03:58:34;5.70;99.90
25058;DHT22;13057;50.978;11.034;2023-04-20T04:01:04;5.70;99.90
25058;DHT22;13057;50.978;11.034;2023-04-20T04:03:34;5.70;99.90
25058;DHT22;13057;50.978;11.034;2023-04-20T04:06:01;5.70;99.90
25058;DHT22;13057;50.978;11.034;2023-04-20T04:08:27;5.70;99.90
25058;DHT22;13057;50.978;11.034;2023-04-20T04:10:53;5.70;99.90
25058;DHT22;13057;50.978;11.034;2023-04-20T04:13:18;5.70;99.90
25058;DHT22;13057;50.978;11.034;2023-04-20T04:15:44;5.80;99.90
25058;DHT22;13057;50.978;11.034;2023-04-20T04:18:10;5.70;99.90
25058;DHT22;13057;50.978;11.034;2023-04-20T04:20:36;5.70;99.90
25058;DHT22;13057;50.978;11.034;2023-04-20T04:23:02;5.80;99.90
25058;DHT22;13057;50.978;11.034;2023-04-20T04:25:28;5.70;99.90
25058;DHT22;13057;50.978;11.034;2023-04-20T04:27:54;5.70;99.90
25058;DHT22;13057;50.978;11.034;2023-04-20T04:30:20;5.70;99.90
25058;DHT22;13057;50.978;11.034;2023-04-20T04:32:46;5.80;99.90
25058;DHT22;13057;50.978;11.034;2023-04-20T04:35:13;5.70;99.90
25058;DHT22;13057;50.978;11.034;2023-04-20T04:37:39;5.80;99.90
25058;DHT22;13057;50.978;11.034;2023-04-20T04:40:06;5.70;99.90
25058;DHT22;13057;50.978;11.034;2023-04-20T04:42:33;5.70;99.90
25058;DHT22;13057;50.978;11.034;2023-04-20T04:44:59;5.80;99.90
25058;DHT22;13057;50.978;11.034;2023-04-20T04:47:27;5.70;99.90
25058;DHT22;13057;50.978;11.034;2023-04-20T04:49:55;5.70;99.90
25058;DHT22;13057;50.978;11.034;2023-04-20T04:52:21;5.70;99.90
25058;DHT22;13057;50.978;11.034;2023-04-20T04:54:47;5.70;99.90
25058;DHT22;13057;50.978;11.034;2023-04-20T04:57:14;5.70;99.90
25058;DHT22;13057;50.978;11.034;2023-04-20T04:59:43;5.70;99.90
25058;DHT22;13057;50.978;11.034;2023-04-20T05:02:09;5.70;99.90
25058;DHT22;13057;50.978;11.034;2023-04-20T05:04:35;5.80;99.90
25058;DHT22;13057;50.978;11.034;2023-04-20T05:07:01;5.80;99.90
25058;DHT22;13057;50.978;11.034;2023-04-20T05:09:27;5.80;99.90
25058;DHT22;13057;50.978;11.034;2023-04-20T05:11:58;5.80;99.90
25058;DHT22;13057;50.978;11.034;2023-04-20T05:14:25;5.80;99.90
25058;DHT22;13057;50.978;11.034;2023-04-20T05:16:51;5.90;99.90
25058;DHT22;13057;50.978;11.034;2023-04-20T05:19:17;5.90;99.90
25058;DHT22;13057;50.978;11.034;2023-04-20T05:21:43;5.90;99.90
25058;DHT22;13057;50.978;11.034;2023-04-20T05:24:09;5.90;99.90
25058;DHT22;13057;50.978;11.034;2023-04-20T05:26:35;5.90;99.90
25058;DHT22;13057;50.978;11.034;2023-04-20T05:29:01;5.90;99.90
25058;DHT22;13057;50.978;11.034;2023-04-20T05:31:27;5.90;99.90
25058;DHT22;13057;50.978;11.034;2023-04-20T05:33:53;5.80;99.90
25058;DHT22;13057;50.978;11.034;2023-04-20T05:36:19;5.90;99.90
25058;DHT22;13057;50.978;11.034;2023-04-20T05:38:45;5.80;99.90
25058;DHT22;13057;50.978;11.034;2023-04-20T05:41:11;5.90;99.90
25058;DHT22;13057;50.978;11.034;2023-04-20T05:43:37;5.90;99.90
25058;DHT22;13057;50.978;11.034;2023-04-20T05:46:03;5.90;99.90
25058;DHT22;13057;50.978;11.034;2023-04-20T05:48:29;5.90;99.90
25058;DHT22;13057;50.978;11.034;2023-04-20T05:50:55;6.00;99.90
25058;DHT22;13057;50.978;11.034;2023-04-20T05:53:21;6.10;99.90
25058;DHT22;13057;50.978;11.034;2023-04-20T05:55:47;6.10;99.90
25058;DHT22;13057;50.978;11.034;2023-04-20T05:58:13;6.20;99.90
25058;DHT22;13057;50.978;11.034;2023-04-20T06:00:40;6.20;99.90
25058;DHT22;13057;50.978;11.034;2023-04-20T06:03:06;6.20;99.90
25058;DHT22;13057;50.978;11.034;2023-04-20T06:05:32;6.20;99.90
25058;DHT22;13057;50.978;11.034;2023-04-20T06:07:58;6.20;99.90
25058;DHT22;13057;50.978;11.034;2023-04-20T06:10:24;6.30;99.90
25058;DHT22;13057;50.978;11.034;2023-04-20T06:12:50;6.30;99.90
25058;DHT22;13057;50.978;11.034;2023-04-20T06:15:16;6.20;99.90
25058;DHT22;13057;50.978;11.034;2023-04-20T06:17:42;6.20;99.90
25058;DHT22;13057;50.978;11.034;2023-04-20T06:20:09;6.20;99.90
25058;DHT22;13057;50.978;11.034;2023-04-20T06:22:36;6.30;99.90
25058;DHT22;13057;50.978;11.034;2023-04-20T06:25:02;6.30;99.90
25058;DHT22;13057;50.978;11.034;2023-04-20T06:27:28;6.40;99.90
25058;DHT22;13057;50.978;11.034;2023-04-20T06:29:53;6.50;99.90
25058;DHT22;13057;50.978;11.034;2023-04-20T06:32:20;6.60;99.90
25058;DHT22;13057;50.978;11.034;2023-04-20T06:34:45;6.60;99.90
25058;DHT22;13057;50.978;11.034;2023-04-20T06:37:12;6.60;99.90
25058;DHT22;13057;50.978;11.034;2023-04-20T06:39:38;6.60;99.90
25058;DHT22;13057;50.978;11.034;2023-04-20T06:42:04;6.60;99.90
25058;DHT22;13057;50.978;11.034;2023-04-20T06:44:30;6.70;99.90
25058;DHT22;13057;50.978;11.034;2023-04-20T06:46:56;6.90;99.90
25058;DHT22;13057;50.978;11.034;2023-04-20T06:49:21;6.90;99.90
25058;DHT22;13057;50.978;11.034;2023-04-20T06:51:48;7.00;99.90
25058;DHT22;13057;50.978;11.034;2023-04-20T06:54:13;7.10;99.90
25058;DHT22;13057;50.978;11.034;2023-04-20T06:56:39;7.30;99.90
25058;DHT22;13057;50.978;11.034;2023-04-20T06:59:05;7.30;99.90
25058;DHT22;13057;50.978;11.034;2023-04-20T07:01:31;7.30;99.90
25058;DHT22;13057;50.978;11.034;2023-04-20T07:03:57;7.30;99.90
25058;DHT22;13057;50.978;11.034;2023-04-20T07:06:22;7.40;99.90
25058;DHT22;13057;50.978;11.034;2023-04-20T07:08:50;7.40;99.90
25058;DHT22;13057;50.978;11.034;2023-04-20T07:11:16;7.40;99.90
25058;DHT22;13057;50.978;11.034;2023-04-20T07:13:42;7.50;99.90
25058;DHT22;13057;50.978;11.034;2023-04-20T07:16:08;7.60;99.90
25058;DHT22;13057;50.978;11.034;2023-04-20T07:18:35;7.60;99.90
25058;DHT22;13057;50.978;11.034;2023-04-20T07:21:01;7.70;99.90
25058;DHT22;13057;50.978;11.034;2023-04-20T07:23:27;7.80;99.90
25058;DHT22;13057;50.978;11.034;2023-04-20T07:25:53;7.80;99.90
25058;DHT22;13057;50.978;11.034;2023-04-20T07:28:20;7.80;99.90
25058;DHT22;13057;50.978;11.034;2023-04-20T07:30:46;7.70;99.90
25058;DHT22;13057;50.978;11.034;2023-04-20T07:33:11;7.80;99.90
25058;DHT22;13057;50.978;11.034;2023-04-20T07:35:37;7.80;99.90
25058;DHT22;13057;50.978;11.034;2023-04-20T07:38:04;7.80;99.90
25058;DHT22;13057;50.978;11.034;2023-04-20T07:40:29;7.90;99.90
25058;DHT22;13057;50.978;11.034;2023-04-20T07:42:55;7.90;99.90
25058;DHT22;13057;50.978;11.034;2023-04-20T07:45:22;8.00;99.90
25058;DHT22;13057;50.978;11.034;2023-04-20T07:47:51;8.00;99.90
25058;DHT22;13057;50.978;11.034;2023-04-20T07:50:20;8.10;99.90
25058;DHT22;13057;50.978;11.034;2023-04-20T07:52:48;8.10;99.90
25058;DHT22;13057;50.978;11.034;2023-04-20T07:55:14;8.10;99.90
25058;DHT22;13057;50.978;11.034;2023-04-20T07:57:42;8.20;99.90
25058;DHT22;13057;50.978;11.034;2023-04-20T08:00:08;8.20;99.90
25058;DHT22;13057;50.978;11.034;2023-04-20T08:02:34;8.10;99.90
25058;DHT22;13057;50.978;11.034;2023-04-20T08:05:03;8.10;99.90
25058;DHT22;13057;50.978;11.034;2023-04-20T08:07:30;8.10;99.90
25058;DHT22;13057;50.978;11.034;2023-04-20T08:09:56;8.10;99.90
25058;DHT22;13057;50.978;11.034;2023-04-20T08:12:22;8.10;99.90
25058;DHT22;13057;50.978;11.034;2023-04-20T08:14:48;8.00;99.90
25058;DHT22;13057;50.978;11.034;2023-04-20T08:17:14;7.90;99.90
25058;DHT22;13057;50.978;11.034;2023-04-20T08:19:40;8.00;99.90
25058;DHT22;13057;50.978;11.034;2023-04-20T08:22:05;7.90;99.90
25058;DHT22;13057;50.978;11.034;2023-04-20T08:24:31;8.00;99.90
25058;DHT22;13057;50.978;11.034;2023-04-20T08:26:57;8.00;99.90
25058;DHT22;13057;50.978;11.034;2023-04-20T08:29:24;8.00;99.90
25058;DHT22;13057;50.978;11.034;2023-04-20T08:31:50;8.00;99.90
25058;DHT22;13057;50.978;11.034;2023-04-20T08:34:16;8.10;99.90
25058;DHT22;13057;50.978;11.034;2023-04-20T08:36:42;8.10;99.90
25058;DHT22;13057;50.978;11.034;2023-04-20T08:39:12;8.20;99.90
25058;DHT22;13057;50.978;11.034;2023-04-20T08:41:38;8.20;99.90
25058;DHT22;13057;50.978;11.034;2023-04-20T08:44:06;8.20;99.90
25058;DHT22;13057;50.978;11.034;2023-04-20T08:46:33;8.30;99.90
25058;DHT22;13057;50.978;11.034;2023-04-20T08:49:00;8.30;99.90
25058;DHT22;13057;50.978;11.034;2023-04-20T08:51:27;8.30;99.90
25058;DHT22;13057;50.978;11.034;2023-04-20T08:53:54;8.40;99.90
25058;DHT22;13057;50.978;11.034;2023-04-20T08:56:33;8.50;99.90
25058;DHT22;13057;50.978;11.034;2023-04-20T08:59:00;8.60;99.90
25058;DHT22;13057;50.978;11.034;2023-04-20T09:01:28;8.80;99.90
25058;DHT22;13057;50.978;11.034;2023-04-20T09:03:54;9.00;99.90
25058;DHT22;13057;50.978;11.034;2023-04-20T09:06:20;9.10;99.90
25058;DHT22;13057;50.978;11.034;2023-04-20T09:08:47;9.10;99.90
25058;DHT22;13057;50.978;11.034;2023-04-20T09:11:25;9.20;99.90
25058;DHT22;13057;50.978;11.034;2023-04-20T09:14:00;9.20;99.90
25058;DHT22;13057;50.978;11.034;2023-04-20T09:16:26;9.10;99.90
25058;DHT22;13057;50.978;11.034;2023-04-20T09:18:53;9.10;99.90
25058;DHT22;13057;50.978;11.034;2023-04-20T09:21:20;9.20;99.90
25058;DHT22;13057;50.978;11.034;2023-04-20T09:24:02;9.20;99.90
25058;DHT22;13057;50.978;11.034;2023-04-20T09:26:32;9.00;99.90
25058;DHT22;13057;50.978;11.034;2023-04-20T09:29:00;9.10;99.90
25058;DHT22;13057;50.978;11.034;2023-04-20T09:31:26;9.20;99.90
25058;DHT22;13057;50.978;11.034;2023-04-20T09:33:59;9.30;99.90
25058;DHT22;13057;50.978;11.034;2023-04-20T09:36:34;9.40;99.90
25058;DHT22;13057;50.978;11.034;2023-04-20T09:39:05;9.30;99.90
25058;DHT22;13057;50.978;11.034;2023-04-20T09:41:31;9.30;99.90
25058;DHT22;13057;50.978;11.034;2023-04-20T09:43:59;9.40;99.90
25058;DHT22;13057;50.978;11.034;2023-04-20T09:46:28;9.50;99.90
25058;DHT22;13057;50.978;11.034;2023-04-20T09:48:58;9.50;99.90
25058;DHT22;13057;50.978;11.034;2023-04-20T09:51:27;9.50;99.90
25058;DHT22;13057;50.978;11.034;2023-04-20T09:53:56;9.60;99.90
25058;DHT22;13057;50.978;11.034;2023-04-20T09:56:22;9.70;99.90
25058;DHT22;13057;50.978;11.034;2023-04-20T09:58:50;9.80;99.90
25058;DHT22;13057;50.978;11.034;2023-04-20T10:01:16;9.70;99.90
25058;DHT22;13057;50.978;11.034;2023-04-20T10:03:43;9.70;99.90
25058;DHT22;13057;50.978;11.034;2023-04-20T10:06:21;9.70;99.90
25058;DHT22;13057;50.978;11.034;2023-04-20T10:08:47;9.80;99.90
25058;DHT22;13057;50.978;11.034;2023-04-20T10:13:52;9.80;99.90
25058;DHT22;13057;50.978;11.034;2023-04-20T10:16:19;9.90;99.90
25058;DHT22;13057;50.978;11.034;2023-04-20T10:18:59;10.00;99.90
25058;DHT22;13057;50.978;11.034;2023-04-20T10:21:25;10.00;99.90
25058;DHT22;13057;50.978;11.034;2023-04-20T10:23:52;10.10;99.90
25058;DHT22;13057;50.978;11.034;2023-04-20T10:26:18;10.10;99.90
25058;DHT22;13057;50.978;11.034;2023-04-20T10:28:45;10.10;99.90
25058;DHT22;13057;50.978;11.034;2023-04-20T10:31:12;10.10;99.90
25058;DHT22;13057;50.978;11.034;2023-04-20T10:33:49;10.00;99.90
25058;DHT22;13057;50.978;11.034;2023-04-20T10:36:23;10.00;99.90
25058;DHT22;13057;50.978;11.034;2023-04-20T10:38:50;10.00;99.90
25058;DHT22;13057;50.978;11.034;2023-04-20T10:41:16;9.90;99.90
25058;DHT22;13057;50.978;11.034;2023-04-20T10:43:42;9.90;99.90
25058;DHT22;13057;50.978;11.034;2023-04-20T10:46:16;9.80;99.90
25058;DHT22;13057;50.978;11.034;2023-04-20T10:48:51;9.70;99.90
25058;DHT22;13057;50.978;11.034;2023-04-20T10:51:17;9.80;99.90
25058;DHT22;13057;50.978;11.034;2023-04-20T10:53:43;9.70;99.90
25058;DHT22;13057;50.978;11.034;2023-04-20T10:56:09;9.80;99.90
25058;DHT22;13057;50.978;11.034;2023-04-20T10:58:35;9.80;99.90
25058;DHT22;13057;50.978;11.034;2023-04-20T11:01:04;10.00;99.90
25058;DHT22;13057;50.978;11.034;2023-04-20T11:03:31;10.00;99.90
25058;DHT22;13057;50.978;11.034;2023-04-20T11:05:57;10.00;99.90
25058;DHT22;13057;50.978;11.034;2023-04-20T11:08:37;10.00;99.90
25058;DHT22;13057;50.978;11.034;2023-04-20T11:11:03;10.00;99.90
25058;DHT22;13057;50.978;11.034;2023-04-20T11:13:30;10.10;99.90
25058;DHT22;13057;50.978;11.034;2023-04-20T11:15:58;10.20;99.90
25058;DHT22;13057;50.978;11.034;2023-04-20T11:18:24;10.10;99.90
25058;DHT22;13057;50.978;11.034;2023-04-20T11:20:52;10.10;99.90
25058;DHT22;13057;50.978;11.034;2023-04-20T11:23:20;10.10;99.90
25058;DHT22;13057;50.978;11.034;2023-04-20T11:25:54;10.10;99.90
25058;DHT22;13057;50.978;11.034;2023-04-20T11:28:21;10.10;99.90
25058;DHT22;13057;50.978;11.034;2023-04-20T11:30:48;10.30;99.90
25058;DHT22;13057;50.978;11.034;2023-04-20T11:33:27;10.40;99.90
25058;DHT22;13057;50.978;11.034;2023-04-20T11:35:54;10.40;99.90
25058;DHT22;13057;50.978;11.034;2023-04-20T11:38:30;10.40;99.90
25058;DHT22;13057;50.978;11.034;2023-04-20T11:40:57;10.40;99.90
25058;DHT22;13057;50.978;11.034;2023-04-20T11:43:30;10.30;99.90
25058;DHT22;13057;50.978;11.034;2023-04-20T11:45:57;10.30;99.90
25058;DHT22;13057;50.978;11.034;2023-04-20T11:48:23;10.40;99.90
25058;DHT22;13057;50.978;11.034;2023-04-20T11:50:50;10.40;99.90
25058;DHT22;13057;50.978;11.034;2023-04-20T11:53:15;10.30;99.90
25058;DHT22;13057;50.978;11.034;2023-04-20T11:55:45;10.40;99.90
25058;DHT22;13057;50.978;11.034;2023-04-20T11:58:11;10.40;99.90
25058;DHT22;13057;50.978;11.034;2023-04-20T12:00:37;10.40;99.90
25058;DHT22;13057;50.978;11.034;2023-04-20T12:03:04;10.40;99.90
25058;DHT22;13057;50.978;11.034;2023-04-20T12:05:45;10.40;99.90
25058;DHT22;13057;50.978;11.034;2023-04-20T12:08:12;10.30;99.90
25058;DHT22;13057;50.978;11.034;2023-04-20T12:10:38;10.10;99.90
25058;DHT22;13057;50.978;11.034;2023-04-20T12:13:08;10.10;99.90
25058;DHT22;13057;50.978;11.034;2023-04-20T12:15:36;10.00;99.90
25058;DHT22;13057;50.978;11.034;2023-04-20T12:18:02;9.90;99.90
25058;DHT22;13057;50.978;11.034;2023-04-20T12:20:28;10.00;99.90
25058;DHT22;13057;50.978;11.034;2023-04-20T12:22:57;10.00;99.90
25058;DHT22;13057;50.978;11.034;2023-04-20T12:25:27;10.00;99.90
25058;DHT22;13057;50.978;11.034;2023-04-20T12:27:54;10.00;99.90
25058;DHT22;13057;50.978;11.034;2023-04-20T12:30:32;9.90;99.90
25058;DHT22;13057;50.978;11.034;2023-04-20T12:33:02;9.80;99.90
25058;DHT22;13057;50.978;11.034;2023-04-20T12:35:42;9.80;99.90
25058;DHT22;13057;50.978;11.034;2023-04-20T12:38:10;9.80;99.90
25058;DHT22;13057;50.978;11.034;2023-04-20T12:40:35;9.80;99.90
25058;DHT22;13057;50.978;11.034;2023-04-20T12:43:01;9.80;99.90
25058;DHT22;13057;50.978;11.034;2023-04-20T12:45:27;9.90;99.90
25058;DHT22;13057;50.978;11.034;2023-04-20T12:47:53;9.90;99.90
25058;DHT22;13057;50.978;11.034;2023-04-20T12:50:19;9.80;99.90
25058;DHT22;13057;50.978;11.034;2023-04-20T12:52:49;9.70;99.90
25058;DHT22;13057;50.978;11.034;2023-04-20T12:55:17;9.80;99.90
25058;DHT22;13057;50.978;11.034;2023-04-20T12:57:43;9.90;99.90
25058;DHT22;13057;50.978;11.034;2023-04-20T13:00:09;10.00;99.90
25058;DHT22;13057;50.978;11.034;2023-04-20T13:02:37;10.10;99.90
25058;DHT22;13057;50.978;11.034;2023-04-20T13:05:03;10.10;99.90
25058;DHT22;13057;50.978;11.034;2023-04-20T13:07:30;10.10;99.90
25058;DHT22;13057;50.978;11.034;2023-04-20T13:09:56;10.20;99.90
25058;DHT22;13057;50.978;11.034;2023-04-20T13:12:22;10.20;99.90
25058;DHT22;13057;50.978;11.034;2023-04-20T13:14:49;10.20;99.90
25058;DHT22;13057;50.978;11.034;2023-04-20T13:17:16;10.20;99.90
25058;DHT22;13057;50.978;11.034;2023-04-20T13:19:44;10.20;99.90
25058;DHT22;13057;50.978;11.034;2023-04-20T13:22:10;10.30;99.90
25058;DHT22;13057;50.978;11.034;2023-04-20T13:24:36;10.30;99.90
25058;DHT22;13057;50.978;11.034;2023-04-20T13:27:02;10.30;99.90
25058;DHT22;13057;50.978;11.034;2023-04-20T13:29:29;10.30;99.90
25058;DHT22;13057;50.978;11.034;2023-04-20T13:31:55;10.30;99.90
25058;DHT22;13057;50.978;11.034;2023-04-20T13:34:21;10.10;99.90
25058;DHT22;13057;50.978;11.034;2023-04-20T13:36:47;10.10;99.90
25058;DHT22;13057;50.978;11.034;2023-04-20T13:39:14;10.20;99.90
25058;DHT22;13057;50.978;11.034;2023-04-20T13:41:40;10.30;99.90
25058;DHT22;13057;50.978;11.034;2023-04-20T13:44:06;10.30;99.90
25058;DHT22;13057;50.978;11.034;2023-04-20T13:46:33;10.40;99.90
25058;DHT22;13057;50.978;11.034;2023-04-20T13:48:59;10.40;99.90
25058;DHT22;13057;50.978;11.034;2023-04-20T13:51:26;10.40;99.90
25058;DHT22;13057;50.978;11.034;2023-04-20T13:53:52;10.40;99.90
25058;DHT22;13057;50.978;11.034;2023-04-20T13:56:18;10.40;99.90
25058;DHT22;13057;50.978;11.034;2023-04-20T13:58:44;10.40;99.90
25058;DHT22;13057;50.978;11.034;2023-04-20T14:01:11;10.40;99.90
25058;DHT22;13057;50.978;11.034;2023-04-20T14:03:37;10.40;99.90
25058;DHT22;13057;50.978;11.034;2023-04-20T14:06:06;10.40;99.90
25058;DHT22;13057;50.978;11.034;2023-04-20T14:08:32;10.50;99.90
25058;DHT22;13057;50.978;11.034;2023-04-20T14:10:58;10.50;99.90
25058;DHT22;13057;50.978;11.034;2023-04-20T14:13:24;10.30;99.90
25058;DHT22;13057;50.978;11.034;2023-04-20T14:15:52;10.40;99.90
25058;DHT22;13057;50.978;11.034;2023-04-20T14:18:18;10.50;99.90
25058;DHT22;13057;50.978;11.034;2023-04-20T14:20:44;10.50;99.90
25058;DHT22;13057;50.978;11.034;2023-04-20T14:23:10;10.50;99.90
25058;DHT22;13057;50.978;11.034;2023-04-20T14:25:36;10.40;99.90
25058;DHT22;13057;50.978;11.034;2023-04-20T14:28:02;10.30;99.90
25058;DHT22;13057;50.978;11.034;2023-04-20T14:30:29;10.30;99.90
25058;DHT22;13057;50.978;11.034;2023-04-20T14:32:55;10.30;99.90
25058;DHT22;13057;50.978;11.034;2023-04-20T14:35:23;10.30;99.90
25058;DHT22;13057;50.978;11.034;2023-04-20T14:37:49;10.20;99.90
25058;DHT22;13057;50.978;11.034;2023-04-20T14:40:15;10.30;99.90
25058;DHT22;13057;50.978;11.034;2023-04-20T14:42:41;10.30;99.90
25058;DHT22;13057;50.978;11.034;2023-04-20T14:45:07;10.40;99.90
25058;DHT22;13057;50.978;11.034;2023-04-20T14:47:33;10.40;99.90
25058;DHT22;13057;50.978;11.034;2023-04-20T14:50:00;10.40;99.90
25058;DHT22;13057;50.978;11.034;2023-04-20T14:52:25;10.30;99.90
25058;DHT22;13057;50.978;11.034;2023-04-20T14:54:51;10.30;99.90
25058;DHT22;13057;50.978;11.034;2023-04-20T14:57:17;10.30;99.90
25058;DHT22;13057;50.978;11.034;2023-04-20T14:59:45;10.30;99.90
25058;DHT22;13057;50.978;11.034;2023-04-20T15:02:11;10.20;99.90
25058;DHT22;13057;50.978;11.034;2023-04-20T15:04:41;10.00;99.90
25058;DHT22;13057;50.978;11.034;2023-04-20T15:07:06;10.00;99.90
25058;DHT22;13057;50.978;11.034;2023-04-20T15:09:32;10.00;99.90
25058;DHT22;13057;50.978;11.034;2023-04-20T15:11:59;9.90;99.90
25058;DHT22;13057;50.978;11.034;2023-04-20T15:14:26;9.90;99.90
25058;DHT22;13057;50.978;11.034;2023-04-20T15:16:52;10.00;99.90
25058;DHT22;13057;50.978;11.034;2023-04-20T15:19:19;10.00;99.90
25058;DHT22;13057;50.978;11.034;2023-04-20T15:21:45;9.90;99.90
25058;DHT22;13057;50.978;11.034;2023-04-20T15:24:11;9.90;99.90
25058;DHT22;13057;50.978;11.034;2023-04-20T15:26:37;9.90;99.90
25058;DHT22;13057;50.978;11.034;2023-04-20T15:29:03;9.90;99.90